createdAt,value
2018-01-28T00:02:00.339Z,100315
2018-01-28T00:04:07.373Z,100321
2018-01-28T00:06:13.140Z,100340
2018-01-28T00:08:18.897Z,100324
2018-01-28T00:10:25.777Z,100321
2018-01-28T00:12:31.671Z,100328
2018-01-28T00:14:37.403Z,100315
2018-01-28T00:16:43.365Z,100322
2018-01-28T00:18:50.441Z,100316
2018-01-28T00:20:56.846Z,100315
2018-01-28T00:23:02.924Z,100295
2018-01-28T00:25:12.173Z,100296
2018-01-28T00:27:18.177Z,100281
2018-01-28T00:29:24.626Z,100282
2018-01-28T00:31:31.297Z,100274
2018-01-28T00:33:38.621Z,100267
2018-01-28T00:35:45.400Z,100266
2018-01-28T00:37:51.839Z,100252
2018-01-28T00:39:58.942Z,100256
2018-01-28T00:42:08.029Z,100237
2018-01-28T00:44:15.341Z,100230
2018-01-28T00:46:21.062Z,100224
2018-01-28T00:48:27.399Z,100215
2018-01-28T00:50:32.990Z,100212
2018-01-28T00:52:38.854Z,100207
2018-01-28T00:54:45.410Z,100212
2018-01-28T00:56:51.289Z,100208
2018-01-28T00:58:58.148Z,100214
2018-01-28T01:01:10.514Z,100211
2018-01-28T01:03:17.238Z,100202
2018-01-28T01:05:24.359Z,100209
2018-01-28T01:07:32.266Z,100233
2018-01-28T01:09:41.417Z,100239
2018-01-28T01:11:48.689Z,100244
2018-01-28T01:13:55.697Z,100236
2018-01-28T01:16:03.069Z,100234
2018-01-28T01:18:13.356Z,100206
2018-01-28T01:20:20.435Z,100214
2018-01-28T01:22:27.039Z,100209
2018-01-28T01:24:33.005Z,100199
2018-01-28T01:26:39.377Z,100196
2018-01-28T01:28:45.285Z,100181
2018-01-28T01:30:51.909Z,100193
2018-01-28T01:32:57.680Z,100180
2018-01-28T01:35:06.730Z,100165
2018-01-28T01:37:13.227Z,100190
2018-01-28T01:39:19.033Z,100173
2018-01-28T01:41:24.646Z,100193
2018-01-28T01:43:30.632Z,100187
2018-01-28T01:45:36.783Z,100189
2018-01-28T01:47:42.759Z,100189
2018-01-28T01:49:50.194Z,100170
2018-01-28T01:51:57.264Z,100171
2018-01-28T01:54:03.162Z,100164
2018-01-28T01:56:19.408Z,100178
2018-01-28T01:58:28.516Z,100159
2018-01-28T02:00:40.529Z,100157
2018-01-28T02:02:50.016Z,100171
2018-01-28T02:04:56.426Z,100106
2018-01-28T02:07:02.414Z,100151
2018-01-28T02:09:10.510Z,100099
2018-01-28T02:11:17.613Z,100098
2018-01-28T02:13:23.561Z,100162
2018-01-28T02:15:38.011Z,100067
2018-01-28T02:17:43.875Z,100110
2018-01-28T02:19:49.903Z,100086
2018-01-28T02:21:56.212Z,100079
2018-01-28T02:24:02.562Z,100062
2018-01-28T02:26:11.219Z,100080
2018-01-28T02:28:17.115Z,100144
2018-01-28T02:30:23.538Z,100109
2018-01-28T02:32:30.494Z,100125
2018-01-28T02:34:37.393Z,100135
2018-01-28T02:36:43.309Z,100123
2018-01-28T02:38:49.822Z,100098
2018-01-28T02:40:55.741Z,100110
2018-01-28T02:43:01.877Z,100140
2018-01-28T02:45:11.163Z,100111
2018-01-28T02:47:17.699Z,100120
2018-01-28T02:49:24.166Z,100096
2018-01-28T02:51:30.193Z,100137
2018-01-28T02:53:35.901Z,100115
2018-01-28T02:55:43.180Z,100125
2018-01-28T02:57:49.973Z,100131
2018-01-28T02:59:57.295Z,100138
2018-01-28T03:02:03.682Z,100122
2018-01-28T03:04:11.871Z,100173
2018-01-28T03:06:17.591Z,100135
2018-01-28T03:08:23.211Z,100127
2018-01-28T03:10:29.002Z,100152
2018-01-28T03:12:34.874Z,100152
2018-01-28T03:14:40.511Z,100179
2018-01-28T03:16:47.327Z,100139
2018-01-28T03:18:53.033Z,100155
2018-01-28T03:20:59.150Z,100135
2018-01-28T03:23:06.698Z,100125
2018-01-28T03:25:12.635Z,100167
2018-01-28T03:27:18.190Z,100145
2018-01-28T03:29:24.021Z,100140
2018-01-28T03:31:30.162Z,100126
2018-01-28T03:33:36.199Z,100172
2018-01-28T03:35:42.086Z,100158
2018-01-28T03:37:53.977Z,100140
2018-01-28T03:39:59.917Z,100127
2018-01-28T03:42:08.691Z,100136
2018-01-28T03:44:14.231Z,100130
2018-01-28T03:46:20.047Z,100147
2018-01-28T03:48:25.822Z,100183
2018-01-28T03:50:31.455Z,100159
2018-01-28T03:52:36.990Z,100185
2018-01-28T03:54:43.679Z,100155
2018-01-28T03:56:49.362Z,100146
2018-01-28T03:58:55.046Z,100166
2018-01-28T04:01:01.169Z,100215
2018-01-28T04:03:09.268Z,100161
2018-01-28T04:05:14.966Z,100169
2018-01-28T04:07:20.426Z,100191
2018-01-28T04:09:26.620Z,100189
2018-01-28T04:11:32.470Z,100182
2018-01-28T04:13:38.162Z,100206
2018-01-28T04:15:43.693Z,100197
2018-01-28T04:17:49.761Z,100215
2018-01-28T04:19:55.395Z,100210
2018-01-28T04:22:01.491Z,100198
2018-01-28T04:24:10.164Z,100197
2018-01-28T04:26:15.954Z,100229
2018-01-28T04:28:21.636Z,100199
2018-01-28T04:30:27.798Z,100201
2018-01-28T04:32:33.341Z,100230
2018-01-28T04:34:39.095Z,100201
2018-01-28T04:36:45.291Z,100197
2018-01-28T04:38:50.902Z,100215
2018-01-28T04:40:56.509Z,100213
2018-01-28T04:43:02.205Z,100217
2018-01-28T04:45:12.258Z,100185
2018-01-28T04:47:17.810Z,100223
2018-01-28T04:49:23.883Z,100220
2018-01-28T04:51:30.198Z,100220
2018-01-28T04:53:36.155Z,100206
2018-01-28T04:55:42.209Z,100209
2018-01-28T04:57:48.465Z,100188
2018-01-28T04:59:54.087Z,100172
2018-01-28T05:02:00.067Z,100179
2018-01-28T05:04:07.136Z,100206
2018-01-28T05:06:13.218Z,100200
2018-01-28T05:08:18.957Z,100201
2018-01-28T05:10:24.642Z,100192
2018-01-28T05:12:30.975Z,100205
2018-01-28T05:14:36.709Z,100178
2018-01-28T05:16:42.486Z,100165
2018-01-28T05:18:48.471Z,100181
2018-01-28T05:20:54.827Z,100169
2018-01-28T05:23:00.710Z,100183
2018-01-28T05:25:09.824Z,100228
2018-01-28T05:27:15.989Z,100189
2018-01-28T05:29:21.727Z,100186
2018-01-28T05:31:27.354Z,100210
2018-01-28T05:33:32.976Z,100213
2018-01-28T05:35:40.873Z,100193
2018-01-28T05:37:46.442Z,100223
2018-01-28T05:39:56.697Z,100173
2018-01-28T05:42:03.029Z,100187
2018-01-28T05:44:12.393Z,100182
2018-01-28T05:46:19.531Z,100196
2018-01-28T05:48:26.461Z,100191
2018-01-28T05:50:34.932Z,100184
2018-01-28T05:52:42.284Z,100200
2018-01-28T05:54:49.482Z,100201
2018-01-28T05:56:57.146Z,100184
2018-01-28T05:59:03.519Z,100219
2018-01-28T06:01:11.136Z,100229
2018-01-28T06:03:17.389Z,100201
2018-01-28T06:05:24.297Z,100212
2018-01-28T06:07:30.726Z,100249
2018-01-28T06:09:37.177Z,100241
2018-01-28T06:11:43.224Z,100216
2018-01-28T06:13:49.925Z,100218
2018-01-28T06:15:56.391Z,100253
2018-01-28T06:18:02.864Z,100251
2018-01-28T06:20:12.870Z,100238
2018-01-28T06:22:18.726Z,100242
2018-01-28T06:24:24.462Z,100248
2018-01-28T06:26:30.203Z,100247
2018-01-28T06:28:36.163Z,100237
2018-01-28T06:30:41.810Z,100267
2018-01-28T06:32:47.379Z,100289
2018-01-28T06:34:53.312Z,100285
2018-01-28T06:36:59.083Z,100271
2018-01-28T06:39:07.442Z,100270
2018-01-28T06:41:14.058Z,100277
2018-01-28T06:43:20.661Z,100264
2018-01-28T06:45:26.260Z,100261
2018-01-28T06:47:32.271Z,100237
2018-01-28T06:49:38.742Z,100240
2018-01-28T06:51:44.334Z,100225
2018-01-28T06:53:49.981Z,100245
2018-01-28T06:55:56.494Z,100229
2018-01-28T06:58:02.070Z,100255
2018-01-28T07:00:08.013Z,100241
2018-01-28T07:02:14.051Z,100263
2018-01-28T07:04:20.510Z,100282
2018-01-28T07:06:26.541Z,100302
2018-01-28T07:08:32.069Z,100270
2018-01-28T07:10:38.289Z,100292
2018-01-28T07:12:43.963Z,100291
2018-01-28T07:14:53.855Z,100303
2018-01-28T07:17:02.523Z,100295
2018-01-28T07:19:14.090Z,100285
2018-01-28T07:21:23.220Z,100293
2018-01-28T07:23:29.397Z,100286
2018-01-28T07:25:37.686Z,100294
2018-01-28T07:27:51.564Z,100280
2018-01-28T07:30:07.913Z,100313
2018-01-28T07:32:16.955Z,100329
2018-01-28T07:37:00.111Z,100342
2018-01-28T07:39:08.295Z,100325
2018-01-28T07:41:20.729Z,100337
2018-01-28T07:43:28.185Z,100313
2018-01-28T07:45:37.573Z,100344
2018-01-28T07:47:46.835Z,100318
2018-01-28T07:49:54.059Z,100327
2018-01-28T07:52:00.920Z,100366
2018-01-28T07:54:15.496Z,100358
2018-01-28T07:56:27.214Z,100347
2018-01-28T07:58:36.677Z,100338
2018-01-28T08:03:13.584Z,100346
2018-01-28T08:05:20.472Z,100372
2018-01-28T08:07:28.921Z,100347
2018-01-28T08:09:35.085Z,100371
2018-01-28T08:11:41.140Z,100356
2018-01-28T08:13:47.480Z,100354
2018-01-28T08:15:56.701Z,100362
2018-01-28T08:18:04.477Z,100364
2018-01-28T08:20:13.589Z,100354
2018-01-28T08:22:21.013Z,100363
2018-01-28T08:24:28.640Z,100363
2018-01-28T08:26:38.455Z,100368
2018-01-28T08:28:44.278Z,100360
2018-01-28T08:30:50.112Z,100382
2018-01-28T08:32:56.567Z,100409
2018-01-28T08:35:03.766Z,100393
2018-01-28T08:37:12.273Z,100387
2018-01-28T08:39:18.561Z,100406
2018-01-28T08:41:24.266Z,100396
2018-01-28T08:43:30.114Z,100372
2018-01-28T08:45:36.367Z,100377
2018-01-28T08:47:41.923Z,100372
2018-01-28T08:49:47.667Z,100379
2018-01-28T08:51:53.420Z,100407
2018-01-28T08:54:00.368Z,100404
2018-01-28T08:56:08.703Z,100407
2018-01-28T08:58:16.352Z,100387
2018-01-28T09:00:22.436Z,100435
2018-01-28T09:02:28.312Z,100405
2018-01-28T09:05:58.584Z,100393
2018-01-28T09:08:04.425Z,100402
2018-01-28T09:10:14.134Z,100393
2018-01-28T09:12:20.177Z,100405
2018-01-28T09:14:27.422Z,100414
2018-01-28T09:16:34.174Z,100408
2018-01-28T09:18:41.840Z,100439
2018-01-28T09:20:48.111Z,100412
2018-01-28T09:22:55.587Z,100408
2018-01-28T09:25:09.831Z,100439
2018-01-28T09:27:15.869Z,100407
2018-01-28T09:29:23.555Z,100415
2018-01-28T09:31:29.328Z,100431
2018-01-28T09:33:35.838Z,100415
2018-01-28T09:35:45.746Z,100421
2018-01-28T09:37:51.921Z,100433
2018-01-28T09:40:00.754Z,100425
2018-01-28T09:42:08.917Z,100421
2018-01-28T09:44:14.817Z,100430
2018-01-28T09:46:20.560Z,100426
2018-01-28T09:48:26.928Z,100429
2018-01-28T09:50:33.850Z,100438
2018-01-28T09:52:41.498Z,100433
2018-01-28T09:57:17.136Z,100422
2018-01-28T09:59:25.601Z,100465
2018-01-28T10:01:33.215Z,100429
2018-01-28T10:03:41.706Z,100439
2018-01-28T10:05:49.097Z,100459
2018-01-28T10:07:55.707Z,100436
2018-01-28T10:10:02.878Z,100425
2018-01-28T10:12:11.242Z,100417
2018-01-28T10:14:17.498Z,100448
2018-01-28T10:16:23.818Z,100422
2018-01-28T10:18:29.788Z,100405
2018-01-28T10:20:36.407Z,100416
2018-01-28T10:22:43.126Z,100419
2018-01-28T10:24:48.856Z,100433
2018-01-28T10:26:55.119Z,100431
2018-01-28T10:29:00.976Z,100444
2018-01-28T10:31:08.695Z,100460
2018-01-28T10:33:14.994Z,100459
2018-01-28T10:35:21.937Z,100456
2018-01-28T10:37:27.803Z,100444
2018-01-28T10:39:34.256Z,100469
2018-01-28T10:41:40.501Z,100460
2018-01-28T10:43:47.064Z,100447
2018-01-28T10:45:53.649Z,100422
2018-01-28T10:48:00.811Z,100428
2018-01-28T10:50:07.170Z,100420
2018-01-28T10:52:13.254Z,100467
2018-01-28T10:54:18.961Z,100414
2018-01-28T10:56:25.316Z,100429
2018-01-28T10:58:33.015Z,100415
2018-01-28T11:00:39.570Z,100399
2018-01-28T11:02:46.543Z,100400
2018-01-28T11:04:53.045Z,100389
2018-01-28T11:06:59.243Z,100423
2018-01-28T11:09:10.415Z,100397
2018-01-28T11:11:16.176Z,100400
2018-01-28T11:13:24.695Z,100412
2018-01-28T11:16:04.576Z,100398
2018-01-28T11:18:14.867Z,100407
2018-01-28T11:20:21.718Z,100390
2018-01-28T11:22:36.940Z,100405
2018-01-28T11:25:12.415Z,100435
2018-01-28T11:27:25.697Z,100453
2018-01-28T11:29:32.991Z,100435
2018-01-28T11:31:40.343Z,100420
2018-01-28T11:33:48.275Z,100408
2018-01-28T11:35:55.396Z,100403
2018-01-28T11:38:13.560Z,100438
2018-01-28T11:40:28.157Z,100425
2018-01-28T11:42:39.436Z,100439
2018-01-28T11:44:48.652Z,100460
2018-01-28T11:46:57.100Z,100448
2018-01-28T11:49:09.921Z,100425
2018-01-28T11:51:18.276Z,100435
2018-01-28T11:53:48.864Z,100420
2018-01-28T11:56:00.972Z,100427
2018-01-28T11:58:15.272Z,100438
2018-01-28T12:00:23.667Z,100431
2018-01-28T12:02:34.393Z,100447
2018-01-28T12:04:41.960Z,100430
2018-01-28T12:06:49.584Z,100418
2018-01-28T12:08:59.982Z,100438
2018-01-28T12:11:14.205Z,100433
2018-01-28T12:13:20.989Z,100420
2018-01-28T12:15:26.957Z,100410
2018-01-28T12:17:34.004Z,100414
2018-01-28T12:19:39.970Z,100419
2018-01-28T12:21:50.234Z,100408
2018-01-28T12:23:57.322Z,100430
2018-01-28T12:26:11.800Z,100434
2018-01-28T12:28:18.344Z,100445
2018-01-28T12:30:24.673Z,100424
2018-01-28T12:32:32.432Z,100430
2018-01-28T12:34:41.142Z,100433
2018-01-28T12:36:52.581Z,100425
2018-01-28T12:39:00.576Z,100435
2018-01-28T12:41:12.427Z,100434
2018-01-28T12:43:18.544Z,100421
2018-01-28T12:45:25.036Z,100430
2018-01-28T12:47:35.896Z,100423
2018-01-28T12:49:42.739Z,100420
2018-01-28T12:54:07.677Z,100411
2018-01-28T12:56:13.827Z,100419
2018-01-28T12:58:20.470Z,100406
2018-01-28T13:00:29.735Z,100401
2018-01-28T13:02:37.392Z,100410
2018-01-28T13:04:44.662Z,100381
2018-01-28T13:06:52.418Z,100433
2018-01-28T13:09:10.247Z,100418
2018-01-28T13:11:22.927Z,100372
2018-01-28T13:13:30.158Z,100363
2018-01-28T13:15:42.089Z,100380
2018-01-28T13:17:50.014Z,100354
2018-01-28T13:19:55.851Z,100412
2018-01-28T13:22:04.224Z,100360
2018-01-28T13:24:12.395Z,100372
2018-01-28T13:26:18.250Z,100371
2018-01-28T13:28:26.221Z,100384
2018-01-28T13:30:32.245Z,100427
2018-01-28T13:32:38.445Z,100404
2018-01-28T13:34:50.215Z,100395
2018-01-28T13:36:57.749Z,100393
2018-01-28T13:39:04.642Z,100417
2018-01-28T13:41:15.370Z,100405
2018-01-28T13:43:22.069Z,100394
2018-01-28T13:45:28.960Z,100389
2018-01-28T13:47:38.706Z,100413
2018-01-28T13:51:45.372Z,100462
2018-01-28T13:53:53.759Z,100405
2018-01-28T13:56:03.993Z,100394
2018-01-28T13:58:16.575Z,100468
2018-01-28T14:00:25.007Z,100453
2018-01-28T14:02:35.610Z,100430
2018-01-28T14:04:43.400Z,100398
2018-01-28T14:06:52.436Z,100395
2018-01-28T14:09:01.392Z,100487
2018-01-28T14:11:13.002Z,100390
2018-01-28T14:13:23.673Z,100434
2018-01-28T14:15:33.082Z,100397
2018-01-28T14:17:41.931Z,100370
2018-01-28T14:19:55.555Z,100402
2018-01-28T14:22:04.471Z,100401
2018-01-28T14:26:50.519Z,100370
2018-01-28T14:31:35.455Z,100377
2018-01-28T14:33:42.673Z,100373
2018-01-28T14:35:49.468Z,100399
2018-01-28T14:37:55.448Z,100380
2018-01-28T14:40:02.443Z,100386
2018-01-28T14:42:13.643Z,100400
2018-01-28T14:44:20.281Z,100399
2018-01-28T14:46:27.018Z,100399
2018-01-28T14:48:33.698Z,100408
2018-01-28T14:50:40.716Z,100397
2018-01-28T14:52:52.158Z,100408
2018-01-28T14:54:59.133Z,100402
2018-01-28T14:57:07.700Z,100424
2018-01-28T14:59:13.498Z,100402
2018-01-28T15:01:19.904Z,100406
2018-01-28T15:03:26.868Z,100434
2018-01-28T15:05:32.784Z,100417
2018-01-28T15:07:42.982Z,100423
2018-01-28T15:09:50.968Z,100430
2018-01-28T15:11:58.249Z,100399
2018-01-28T15:14:07.536Z,100414
2018-01-28T15:16:14.360Z,100399
2018-01-28T15:18:20.202Z,100420
2018-01-28T15:20:27.795Z,100401
2018-01-28T15:22:34.383Z,100396
2018-01-28T15:24:40.660Z,100387
2018-01-28T15:26:47.478Z,100373
2018-01-28T15:28:53.558Z,100382
2018-01-28T15:30:59.828Z,100369
2018-01-28T15:33:14.779Z,100397
2018-01-28T15:35:23.120Z,100375
2018-01-28T15:37:35.261Z,100405
2018-01-28T15:39:42.049Z,100392
2018-01-28T15:41:48.416Z,100403
2018-01-28T15:46:41.921Z,100390
2018-01-28T15:51:21.713Z,100398
2018-01-28T15:53:32.338Z,100383
2018-01-28T15:55:38.651Z,100376
2018-01-28T15:57:45.365Z,100402
2018-01-28T15:59:52.556Z,100382
2018-01-28T16:01:58.995Z,100383
2018-01-28T16:04:10.501Z,100389
2018-01-28T16:06:16.510Z,100388
2018-01-28T16:08:22.492Z,100386
2018-01-28T16:10:28.735Z,100386
2018-01-28T16:12:34.716Z,100377
2018-01-28T16:14:41.363Z,100382
2018-01-28T16:16:47.662Z,100383
2018-01-28T16:18:53.672Z,100383
2018-01-28T16:20:59.547Z,100391
2018-01-28T16:23:07.993Z,100395
2018-01-28T16:25:14.099Z,100404
2018-01-28T16:27:20.909Z,100394
2018-01-28T16:29:27.572Z,100393
2018-01-28T16:31:34.735Z,100396
2018-01-28T16:33:41.547Z,100398
2018-01-28T16:35:48.287Z,100400
2018-01-28T16:37:58.022Z,100399
2018-01-28T16:40:20.236Z,100404
2018-01-28T16:42:33.923Z,100400
2018-01-28T16:44:49.570Z,100396
2018-01-28T16:46:55.680Z,100392
2018-01-28T16:49:03.591Z,100391
2018-01-28T16:51:12.368Z,100395
2018-01-28T16:53:19.729Z,100387
2018-01-28T16:55:27.040Z,100390
2018-01-28T16:57:34.651Z,100390
2018-01-28T16:59:41.013Z,100388
2018-01-28T17:01:46.799Z,100391
2018-01-28T17:03:52.556Z,100398
2018-01-28T17:05:58.353Z,100394
2018-01-28T17:08:11.801Z,100391
2018-01-28T17:10:26.560Z,100387
2018-01-28T17:12:37.230Z,100387
2018-01-28T17:14:44.228Z,100381
2018-01-28T17:16:51.362Z,100384
2018-01-28T17:21:15.298Z,100389
2018-01-28T17:23:23.774Z,100390
2018-01-28T17:25:45.809Z,100402
2018-01-28T17:27:57.327Z,100405
2018-01-28T17:30:21.946Z,100403
2018-01-28T17:32:32.673Z,100399
2018-01-28T17:34:44.314Z,100405
2018-01-28T17:43:04.752Z,100399
2018-01-28T17:45:14.458Z,100404
2018-01-28T17:47:21.749Z,100407
2018-01-28T17:49:29.497Z,100412
2018-01-28T17:51:35.611Z,100410
2018-01-28T17:53:42.298Z,100402
2018-01-28T17:55:48.463Z,100396
2018-01-28T17:58:01.870Z,100397
2018-01-28T18:00:19.308Z,100397
2018-01-28T18:02:25.445Z,100389
2018-01-28T18:04:31.586Z,100392
2018-01-28T18:06:38.122Z,100381
2018-01-28T18:08:44.469Z,100386
2018-01-28T18:10:51.643Z,100384
2018-01-28T18:13:00.250Z,100387
2018-01-28T18:15:17.065Z,100390
2018-01-28T18:17:23.965Z,100383
2018-01-28T18:19:32.013Z,100386
2018-01-28T18:21:39.492Z,100385
2018-01-28T18:23:50.264Z,100378
2018-01-28T18:25:59.682Z,100369
2018-01-28T18:28:11.689Z,100372
2018-01-28T18:30:24.160Z,100375
2018-01-28T18:32:37.499Z,100370
2018-01-28T18:34:47.502Z,100375
2018-01-28T18:36:57.944Z,100371
2018-01-28T18:39:04.598Z,100373
2018-01-28T18:41:12.671Z,100372
2018-01-28T18:43:19.768Z,100389
2018-01-28T18:45:26.507Z,100374
2018-01-28T18:47:38.781Z,100375
2018-01-28T18:49:46.117Z,100368
2018-01-28T18:51:53.939Z,100362
2018-01-28T18:54:00.209Z,100366
2018-01-28T18:56:10.087Z,100366
2018-01-28T18:58:17.031Z,100359
2018-01-28T19:00:23.669Z,100365
2018-01-28T19:02:29.587Z,100359
2018-01-28T19:04:38.014Z,100367
2018-01-28T19:06:50.831Z,100367
2018-01-28T19:09:00.789Z,100372
2018-01-28T19:11:14.512Z,100361
2018-01-28T19:13:26.054Z,100361
2018-01-28T19:15:34.721Z,100375
2018-01-28T19:17:49.068Z,100356
2018-01-28T19:20:00.585Z,100368
2018-01-28T19:22:15.759Z,100367
2018-01-28T19:24:24.721Z,100361
2018-01-28T19:26:33.853Z,100356
2018-01-28T19:28:44.457Z,100366
2018-01-28T19:30:58.801Z,100355
2018-01-28T19:33:17.507Z,100364
2018-01-28T19:35:31.222Z,100368
2018-01-28T19:38:39.857Z,100374
2018-01-28T19:40:51.662Z,100367
2018-01-28T19:43:07.027Z,100370
2018-01-28T19:45:36.315Z,100360
2018-01-28T19:47:42.776Z,100364
2018-01-28T19:49:48.940Z,100367
2018-01-28T19:51:55.079Z,100361
2018-01-28T19:54:09.651Z,100365
2018-01-28T19:56:16.950Z,100375
2018-01-28T19:58:23.253Z,100372
2018-01-28T20:00:36.794Z,100379
2018-01-28T20:02:51.457Z,100373
2018-01-28T20:04:57.921Z,100372
2018-01-28T20:07:04.340Z,100375
2018-01-28T20:09:13.678Z,100360
2018-01-28T20:11:19.629Z,100367
2018-01-28T20:13:27.262Z,100363
2018-01-28T20:15:33.553Z,100356
2018-01-28T20:24:41.957Z,100358
2018-01-28T20:26:48.573Z,100371
2018-01-28T20:28:55.023Z,100366
2018-01-28T20:31:00.992Z,100368
2018-01-28T20:33:10.994Z,100365
2018-01-28T20:35:17.340Z,100362
2018-01-28T20:37:23.076Z,100366
2018-01-28T20:39:29.045Z,100370
2018-01-28T20:41:35.253Z,100376
2018-01-28T20:43:43.241Z,100368
2018-01-28T20:45:51.517Z,100366
2018-01-28T20:47:58.248Z,100367
2018-01-28T20:50:04.474Z,100365
2018-01-28T20:52:12.463Z,100362
2018-01-28T20:54:18.782Z,100370
2018-01-28T20:56:25.271Z,100373
2018-01-28T20:58:31.209Z,100370
2018-01-28T21:00:37.414Z,100380
2018-01-28T21:02:43.369Z,100369
2018-01-28T21:04:50.041Z,100378
2018-01-28T21:07:01.967Z,100376
2018-01-28T21:09:12.967Z,100378
2018-01-28T21:14:10.185Z,100364
2018-01-28T21:16:22.553Z,100368
2018-01-28T21:18:28.832Z,100372
2018-01-28T21:20:34.924Z,100377
2018-01-28T21:22:41.099Z,100382
2018-01-28T21:24:46.805Z,100382
2018-01-28T21:26:54.023Z,100381
2018-01-28T21:30:23.767Z,100376
2018-01-28T21:32:29.868Z,100374
2018-01-28T21:34:35.646Z,100367
2018-01-28T21:36:42.183Z,100368
2018-01-28T21:38:48.801Z,100362
2018-01-28T21:40:54.790Z,100365
2018-01-28T21:43:01.609Z,100372
2018-01-28T21:45:12.107Z,100359
2018-01-28T21:47:18.089Z,100363
2018-01-28T21:49:26.070Z,100361
2018-01-28T21:51:33.384Z,100354
2018-01-28T21:53:42.053Z,100351
2018-01-28T21:55:48.221Z,100357
2018-01-28T21:57:53.954Z,100360
2018-01-28T22:00:00.075Z,100353
2018-01-28T22:02:08.524Z,100361
2018-01-28T22:04:14.869Z,100364
2018-01-28T22:06:33.138Z,100350
2018-01-28T22:09:00.181Z,100358
2018-01-28T22:11:11.282Z,100349
2018-01-28T22:13:17.624Z,100360
2018-01-28T22:15:24.680Z,100346
2018-01-28T22:17:32.037Z,100342
2018-01-28T22:19:38.530Z,100344
2018-01-28T22:21:45.725Z,100341
2018-01-28T22:23:52.550Z,100348
2018-01-28T22:25:59.538Z,100349
2018-01-28T22:28:09.159Z,100337
2018-01-28T22:30:17.185Z,100374
2018-01-28T22:32:25.450Z,100343
2018-01-28T22:34:34.134Z,100335
2018-01-28T22:36:41.539Z,100344
2018-01-28T22:38:49.033Z,100347
2018-01-28T22:40:56.106Z,100338
2018-01-28T22:43:03.299Z,100345
2018-01-28T22:45:13.482Z,100335
2018-01-28T22:47:20.948Z,100335
2018-01-28T22:49:28.242Z,100337
2018-01-28T22:51:35.559Z,100341
2018-01-28T22:53:42.860Z,100340
2018-01-28T22:55:52.590Z,100338
2018-01-28T22:58:00.411Z,100327
2018-01-28T23:00:11.920Z,100327
2018-01-28T23:02:18.672Z,100334
2018-01-28T23:04:24.815Z,100330
2018-01-28T23:06:31.242Z,100326
2018-01-28T23:08:41.068Z,100323
2018-01-28T23:10:46.908Z,100317
2018-01-28T23:12:53.430Z,100311
2018-01-28T23:14:59.815Z,100310
2018-01-28T23:17:06.095Z,100312
2018-01-28T23:19:13.694Z,100312
2018-01-28T23:21:19.281Z,100304
2018-01-28T23:23:26.594Z,100312
2018-01-28T23:25:33.218Z,100314
2018-01-28T23:27:40.133Z,100316
2018-01-28T23:29:47.282Z,100307
2018-01-28T23:31:52.990Z,100314
2018-01-28T23:33:59.106Z,100316
2018-01-28T23:36:06.927Z,100305
2018-01-28T23:38:13.377Z,100312
2018-01-28T23:40:19.026Z,100314
2018-01-28T23:42:25.203Z,100310
2018-01-28T23:44:30.898Z,100311
2018-01-28T23:46:38.664Z,100317
2018-01-28T23:48:58.809Z,100317
2018-01-28T23:51:09.108Z,100317
2018-01-28T23:53:16.393Z,100316
2018-01-28T23:55:23.065Z,100313
2018-01-28T23:57:30.528Z,100314
